sensor_id;sensor_type;location;lat;lon;timestamp;P1;durP1;ratioP1;P2;durP2;ratioP2
54201;SDS011;40108;53.152;5.844;2024-01-06T00:01:47;21.23;;;14.55;;
54201;SDS011;40108;53.152;5.844;2024-01-06T00:04:12;19.90;;;15.48;;
54201;SDS011;40108;53.152;5.844;2024-01-06T00:06:38;18.38;;;13.90;;
54201;SDS011;40108;53.152;5.844;2024-01-06T00:09:03;17.73;;;15.38;;
54201;SDS011;40108;53.152;5.844;2024-01-06T00:11:29;19.40;;;12.82;;
54201;SDS011;40108;53.152;5.844;2024-01-06T00:13:55;14.85;;;11.98;;
54201;SDS011;40108;53.152;5.844;2024-01-06T00:16:21;15.65;;;12.18;;
54201;SDS011;40108;53.152;5.844;2024-01-06T00:18:47;13.70;;;10.93;;
54201;SDS011;40108;53.152;5.844;2024-01-06T00:21:13;18.67;;;12.50;;
54201;SDS011;40108;53.152;5.844;2024-01-06T00:23:41;14.80;;;11.40;;
54201;SDS011;40108;53.152;5.844;2024-01-06T00:26:07;17.38;;;11.98;;
54201;SDS011;40108;53.152;5.844;2024-01-06T00:28:34;13.98;;;11.30;;
54201;SDS011;40108;53.152;5.844;2024-01-06T00:31:00;17.48;;;11.82;;
54201;SDS011;40108;53.152;5.844;2024-01-06T00:33:26;16.25;;;10.85;;
54201;SDS011;40108;53.152;5.844;2024-01-06T00:35:51;15.10;;;10.90;;
54201;SDS011;40108;53.152;5.844;2024-01-06T00:38:17;14.95;;;10.55;;
54201;SDS011;40108;53.152;5.844;2024-01-06T00:40:43;18.38;;;10.50;;
54201;SDS011;40108;53.152;5.844;2024-01-06T00:43:09;18.40;;;11.25;;
54201;SDS011;40108;53.152;5.844;2024-01-06T00:45:35;16.75;;;10.57;;
54201;SDS011;40108;53.152;5.844;2024-01-06T00:48:00;14.63;;;10.98;;
54201;SDS011;40108;53.152;5.844;2024-01-06T00:50:26;17.27;;;11.68;;
54201;SDS011;40108;53.152;5.844;2024-01-06T00:52:52;14.70;;;11.27;;
54201;SDS011;40108;53.152;5.844;2024-01-06T00:55:18;19.15;;;12.27;;
54201;SDS011;40108;53.152;5.844;2024-01-06T00:57:44;16.60;;;12.18;;
54201;SDS011;40108;53.152;5.844;2024-01-06T01:00:10;17.10;;;12.05;;
54201;SDS011;40108;53.152;5.844;2024-01-06T01:02:37;19.70;;;13.00;;
54201;SDS011;40108;53.152;5.844;2024-01-06T01:05:03;16.63;;;12.15;;
54201;SDS011;40108;53.152;5.844;2024-01-06T01:07:29;14.68;;;11.82;;
54201;SDS011;40108;53.152;5.844;2024-01-06T01:09:55;18.45;;;11.82;;
54201;SDS011;40108;53.152;5.844;2024-01-06T01:12:21;22.63;;;13.75;;
54201;SDS011;40108;53.152;5.844;2024-01-06T01:14:48;15.63;;;11.75;;
54201;SDS011;40108;53.152;5.844;2024-01-06T01:17:14;20.77;;;12.70;;
54201;SDS011;40108;53.152;5.844;2024-01-06T01:19:40;19.77;;;12.68;;
54201;SDS011;40108;53.152;5.844;2024-01-06T01:22:05;15.85;;;12.43;;
54201;SDS011;40108;53.152;5.844;2024-01-06T01:24:31;19.55;;;14.43;;
54201;SDS011;40108;53.152;5.844;2024-01-06T01:26:57;39.33;;;18.73;;
54201;SDS011;40108;53.152;5.844;2024-01-06T01:29:23;19.35;;;12.68;;
54201;SDS011;40108;53.152;5.844;2024-01-06T01:31:49;24.63;;;14.98;;
54201;SDS011;40108;53.152;5.844;2024-01-06T01:34:14;33.50;;;15.98;;
54201;SDS011;40108;53.152;5.844;2024-01-06T01:36:40;18.05;;;11.77;;
54201;SDS011;40108;53.152;5.844;2024-01-06T01:39:06;22.33;;;14.43;;
54201;SDS011;40108;53.152;5.844;2024-01-06T01:41:32;19.80;;;11.32;;
54201;SDS011;40108;53.152;5.844;2024-01-06T01:43:57;14.93;;;10.27;;
54201;SDS011;40108;53.152;5.844;2024-01-06T01:46:26;18.17;;;10.75;;
54201;SDS011;40108;53.152;5.844;2024-01-06T01:48:54;17.98;;;12.20;;
54201;SDS011;40108;53.152;5.844;2024-01-06T01:51:21;21.65;;;11.77;;
54201;SDS011;40108;53.152;5.844;2024-01-06T01:53:48;16.05;;;10.70;;
54201;SDS011;40108;53.152;5.844;2024-01-06T01:56:14;18.98;;;11.45;;
54201;SDS011;40108;53.152;5.844;2024-01-06T01:58:41;14.27;;;11.50;;
54201;SDS011;40108;53.152;5.844;2024-01-06T02:01:07;16.83;;;11.82;;
54201;SDS011;40108;53.152;5.844;2024-01-06T02:03:34;15.80;;;11.77;;
54201;SDS011;40108;53.152;5.844;2024-01-06T02:06:00;18.58;;;12.40;;
54201;SDS011;40108;53.152;5.844;2024-01-06T02:08:26;15.73;;;11.10;;
54201;SDS011;40108;53.152;5.844;2024-01-06T02:10:55;20.88;;;12.60;;
54201;SDS011;40108;53.152;5.844;2024-01-06T02:13:21;18.85;;;11.75;;
54201;SDS011;40108;53.152;5.844;2024-01-06T02:15:47;18.98;;;11.50;;
54201;SDS011;40108;53.152;5.844;2024-01-06T02:18:13;23.63;;;11.48;;
54201;SDS011;40108;53.152;5.844;2024-01-06T02:20:40;21.52;;;12.38;;
54201;SDS011;40108;53.152;5.844;2024-01-06T02:23:09;20.17;;;12.00;;
54201;SDS011;40108;53.152;5.844;2024-01-06T02:25:34;21.52;;;11.27;;
54201;SDS011;40108;53.152;5.844;2024-01-06T02:28:00;18.77;;;10.90;;
54201;SDS011;40108;53.152;5.844;2024-01-06T02:30:26;20.60;;;11.32;;
54201;SDS011;40108;53.152;5.844;2024-01-06T02:32:51;20.10;;;11.57;;
54201;SDS011;40108;53.152;5.844;2024-01-06T02:35:17;22.08;;;12.40;;
54201;SDS011;40108;53.152;5.844;2024-01-06T02:37:43;25.42;;;13.23;;
54201;SDS011;40108;53.152;5.844;2024-01-06T02:40:09;18.50;;;11.18;;
54201;SDS011;40108;53.152;5.844;2024-01-06T02:42:35;20.98;;;12.38;;
54201;SDS011;40108;53.152;5.844;2024-01-06T02:45:01;23.90;;;13.02;;
54201;SDS011;40108;53.152;5.844;2024-01-06T02:47:27;21.67;;;12.10;;
54201;SDS011;40108;53.152;5.844;2024-01-06T02:49:53;20.60;;;12.40;;
54201;SDS011;40108;53.152;5.844;2024-01-06T02:52:19;23.63;;;12.90;;
54201;SDS011;40108;53.152;5.844;2024-01-06T02:54:44;20.73;;;13.60;;
54201;SDS011;40108;53.152;5.844;2024-01-06T02:57:10;19.92;;;12.75;;
54201;SDS011;40108;53.152;5.844;2024-01-06T02:59:38;24.42;;;12.95;;
54201;SDS011;40108;53.152;5.844;2024-01-06T03:02:04;22.60;;;13.50;;
54201;SDS011;40108;53.152;5.844;2024-01-06T03:04:29;18.38;;;12.65;;
54201;SDS011;40108;53.152;5.844;2024-01-06T03:06:55;25.10;;;11.82;;
54201;SDS011;40108;53.152;5.844;2024-01-06T03:09:21;28.58;;;13.60;;
54201;SDS011;40108;53.152;5.844;2024-01-06T03:11:46;17.48;;;11.82;;
54201;SDS011;40108;53.152;5.844;2024-01-06T03:14:12;20.75;;;12.93;;
54201;SDS011;40108;53.152;5.844;2024-01-06T03:16:38;23.00;;;12.75;;
54201;SDS011;40108;53.152;5.844;2024-01-06T03:19:04;26.63;;;12.13;;
54201;SDS011;40108;53.152;5.844;2024-01-06T03:21:29;24.95;;;11.48;;
54201;SDS011;40108;53.152;5.844;2024-01-06T03:23:55;21.77;;;11.85;;
54201;SDS011;40108;53.152;5.844;2024-01-06T03:26:21;20.70;;;12.45;;
54201;SDS011;40108;53.152;5.844;2024-01-06T03:28:49;17.95;;;9.95;;
54201;SDS011;40108;53.152;5.844;2024-01-06T03:31:15;20.17;;;11.32;;
54201;SDS011;40108;53.152;5.844;2024-01-06T03:33:41;17.80;;;10.63;;
54201;SDS011;40108;53.152;5.844;2024-01-06T03:36:07;22.02;;;11.35;;
54201;SDS011;40108;53.152;5.844;2024-01-06T03:38:33;19.80;;;11.23;;
54201;SDS011;40108;53.152;5.844;2024-01-06T03:40:59;20.23;;;10.50;;
54201;SDS011;40108;53.152;5.844;2024-01-06T03:43:25;26.27;;;11.23;;
54201;SDS011;40108;53.152;5.844;2024-01-06T03:45:50;18.80;;;11.15;;
54201;SDS011;40108;53.152;5.844;2024-01-06T03:48:16;18.30;;;10.95;;
54201;SDS011;40108;53.152;5.844;2024-01-06T03:50:42;23.65;;;11.32;;
54201;SDS011;40108;53.152;5.844;2024-01-06T03:53:07;21.50;;;11.23;;
54201;SDS011;40108;53.152;5.844;2024-01-06T03:55:33;23.25;;;10.93;;
54201;SDS011;40108;53.152;5.844;2024-01-06T03:57:59;19.48;;;10.32;;
54201;SDS011;40108;53.152;5.844;2024-01-06T04:00:25;20.05;;;11.38;;
54201;SDS011;40108;53.152;5.844;2024-01-06T04:02:51;19.98;;;11.18;;
54201;SDS011;40108;53.152;5.844;2024-01-06T04:05:17;20.63;;;10.75;;
54201;SDS011;40108;53.152;5.844;2024-01-06T04:07:43;19.52;;;11.02;;
54201;SDS011;40108;53.152;5.844;2024-01-06T04:10:09;20.10;;;10.93;;
54201;SDS011;40108;53.152;5.844;2024-01-06T04:12:34;24.60;;;11.45;;
54201;SDS011;40108;53.152;5.844;2024-01-06T04:15:00;18.70;;;10.77;;
54201;SDS011;40108;53.152;5.844;2024-01-06T04:17:26;20.88;;;10.43;;
54201;SDS011;40108;53.152;5.844;2024-01-06T04:19:52;19.10;;;9.90;;
54201;SDS011;40108;53.152;5.844;2024-01-06T04:22:18;20.23;;;9.88;;
54201;SDS011;40108;53.152;5.844;2024-01-06T04:24:44;16.75;;;9.93;;
54201;SDS011;40108;53.152;5.844;2024-01-06T04:27:10;17.73;;;10.05;;
54201;SDS011;40108;53.152;5.844;2024-01-06T04:29:35;16.85;;;9.93;;
54201;SDS011;40108;53.152;5.844;2024-01-06T04:32:01;19.35;;;9.63;;
54201;SDS011;40108;53.152;5.844;2024-01-06T04:34:27;25.55;;;10.20;;
54201;SDS011;40108;53.152;5.844;2024-01-06T04:36:53;25.00;;;10.25;;
54201;SDS011;40108;53.152;5.844;2024-01-06T04:39:18;16.88;;;9.75;;
54201;SDS011;40108;53.152;5.844;2024-01-06T04:41:44;25.27;;;10.45;;
54201;SDS011;40108;53.152;5.844;2024-01-06T04:44:10;20.80;;;10.18;;
54201;SDS011;40108;53.152;5.844;2024-01-06T04:46:35;25.55;;;9.65;;
54201;SDS011;40108;53.152;5.844;2024-01-06T04:49:01;15.60;;;9.45;;
54201;SDS011;40108;53.152;5.844;2024-01-06T04:51:27;17.90;;;9.82;;
54201;SDS011;40108;53.152;5.844;2024-01-06T04:53:53;21.80;;;9.63;;
54201;SDS011;40108;53.152;5.844;2024-01-06T04:56:19;18.10;;;9.73;;
54201;SDS011;40108;53.152;5.844;2024-01-06T04:58:44;29.17;;;10.82;;
54201;SDS011;40108;53.152;5.844;2024-01-06T05:01:10;20.05;;;9.98;;
54201;SDS011;40108;53.152;5.844;2024-01-06T05:03:37;21.83;;;10.25;;
54201;SDS011;40108;53.152;5.844;2024-01-06T05:06:02;16.45;;;9.65;;
54201;SDS011;40108;53.152;5.844;2024-01-06T05:08:29;22.30;;;10.43;;
54201;SDS011;40108;53.152;5.844;2024-01-06T05:10:56;22.75;;;10.52;;
54201;SDS011;40108;53.152;5.844;2024-01-06T05:13:21;22.52;;;9.70;;
54201;SDS011;40108;53.152;5.844;2024-01-06T05:15:47;23.63;;;10.68;;
54201;SDS011;40108;53.152;5.844;2024-01-06T05:18:13;23.92;;;10.35;;
54201;SDS011;40108;53.152;5.844;2024-01-06T05:20:38;19.23;;;10.18;;
54201;SDS011;40108;53.152;5.844;2024-01-06T05:23:06;19.55;;;10.88;;
54201;SDS011;40108;53.152;5.844;2024-01-06T05:25:32;20.63;;;9.75;;
54201;SDS011;40108;53.152;5.844;2024-01-06T05:27:58;19.35;;;10.55;;
54201;SDS011;40108;53.152;5.844;2024-01-06T05:30:23;15.93;;;10.32;;
54201;SDS011;40108;53.152;5.844;2024-01-06T05:32:49;20.73;;;10.45;;
54201;SDS011;40108;53.152;5.844;2024-01-06T05:35:17;22.83;;;11.02;;
54201;SDS011;40108;53.152;5.844;2024-01-06T05:37:43;17.88;;;10.57;;
54201;SDS011;40108;53.152;5.844;2024-01-06T05:40:09;22.73;;;10.85;;
54201;SDS011;40108;53.152;5.844;2024-01-06T05:42:34;24.67;;;11.45;;
54201;SDS011;40108;53.152;5.844;2024-01-06T05:45:00;22.80;;;10.85;;
54201;SDS011;40108;53.152;5.844;2024-01-06T05:47:26;19.00;;;10.38;;
54201;SDS011;40108;53.152;5.844;2024-01-06T05:49:51;18.67;;;10.50;;
54201;SDS011;40108;53.152;5.844;2024-01-06T05:52:17;19.08;;;9.85;;
54201;SDS011;40108;53.152;5.844;2024-01-06T05:54:43;20.45;;;9.63;;
54201;SDS011;40108;53.152;5.844;2024-01-06T05:57:08;21.13;;;10.02;;
54201;SDS011;40108;53.152;5.844;2024-01-06T05:59:34;17.67;;;8.73;;
54201;SDS011;40108;53.152;5.844;2024-01-06T06:02:00;25.40;;;10.02;;
54201;SDS011;40108;53.152;5.844;2024-01-06T06:04:26;21.20;;;9.80;;
54201;SDS011;40108;53.152;5.844;2024-01-06T06:06:52;21.88;;;11.18;;
54201;SDS011;40108;53.152;5.844;2024-01-06T06:09:17;17.33;;;10.63;;
54201;SDS011;40108;53.152;5.844;2024-01-06T06:11:43;24.70;;;9.82;;
54201;SDS011;40108;53.152;5.844;2024-01-06T06:14:09;21.40;;;11.00;;
54201;SDS011;40108;53.152;5.844;2024-01-06T06:16:34;24.08;;;10.70;;
54201;SDS011;40108;53.152;5.844;2024-01-06T06:19:00;22.60;;;10.35;;
54201;SDS011;40108;53.152;5.844;2024-01-06T06:21:26;21.25;;;10.57;;
54201;SDS011;40108;53.152;5.844;2024-01-06T06:23:53;17.52;;;10.27;;
54201;SDS011;40108;53.152;5.844;2024-01-06T06:26:18;24.02;;;10.55;;
54201;SDS011;40108;53.152;5.844;2024-01-06T06:28:44;24.83;;;10.23;;
54201;SDS011;40108;53.152;5.844;2024-01-06T06:31:10;24.42;;;10.18;;
54201;SDS011;40108;53.152;5.844;2024-01-06T06:33:35;22.70;;;10.55;;
54201;SDS011;40108;53.152;5.844;2024-01-06T06:36:01;23.63;;;9.77;;
54201;SDS011;40108;53.152;5.844;2024-01-06T06:38:27;22.38;;;10.25;;
54201;SDS011;40108;53.152;5.844;2024-01-06T06:40:53;20.45;;;10.00;;
54201;SDS011;40108;53.152;5.844;2024-01-06T06:43:19;18.85;;;10.60;;
54201;SDS011;40108;53.152;5.844;2024-01-06T06:45:44;20.80;;;9.95;;
54201;SDS011;40108;53.152;5.844;2024-01-06T06:48:10;26.10;;;10.10;;
54201;SDS011;40108;53.152;5.844;2024-01-06T06:50:36;19.48;;;10.30;;
54201;SDS011;40108;53.152;5.844;2024-01-06T06:53:01;19.42;;;10.38;;
54201;SDS011;40108;53.152;5.844;2024-01-06T06:55:27;23.75;;;10.88;;
54201;SDS011;40108;53.152;5.844;2024-01-06T06:57:53;18.35;;;9.68;;
54201;SDS011;40108;53.152;5.844;2024-01-06T07:00:19;20.75;;;10.35;;
54201;SDS011;40108;53.152;5.844;2024-01-06T07:02:45;18.30;;;9.80;;
54201;SDS011;40108;53.152;5.844;2024-01-06T07:05:10;20.90;;;9.40;;
54201;SDS011;40108;53.152;5.844;2024-01-06T07:07:36;21.27;;;10.88;;
54201;SDS011;40108;53.152;5.844;2024-01-06T07:10:03;21.40;;;10.60;;
54201;SDS011;40108;53.152;5.844;2024-01-06T07:12:30;17.52;;;10.13;;
54201;SDS011;40108;53.152;5.844;2024-01-06T07:14:56;22.63;;;10.77;;
54201;SDS011;40108;53.152;5.844;2024-01-06T07:17:24;22.13;;;11.02;;
54201;SDS011;40108;53.152;5.844;2024-01-06T07:19:49;20.98;;;10.32;;
54201;SDS011;40108;53.152;5.844;2024-01-06T07:22:15;19.95;;;10.48;;
54201;SDS011;40108;53.152;5.844;2024-01-06T07:24:44;31.50;;;11.95;;
54201;SDS011;40108;53.152;5.844;2024-01-06T07:27:10;18.23;;;11.10;;
54201;SDS011;40108;53.152;5.844;2024-01-06T07:29:35;18.30;;;11.38;;
54201;SDS011;40108;53.152;5.844;2024-01-06T07:32:02;22.70;;;11.27;;
54201;SDS011;40108;53.152;5.844;2024-01-06T07:34:27;22.25;;;11.90;;
54201;SDS011;40108;53.152;5.844;2024-01-06T07:36:53;24.80;;;11.40;;
54201;SDS011;40108;53.152;5.844;2024-01-06T07:39:20;18.00;;;10.68;;
54201;SDS011;40108;53.152;5.844;2024-01-06T07:41:46;21.95;;;11.88;;
54201;SDS011;40108;53.152;5.844;2024-01-06T07:44:12;20.70;;;11.50;;
54201;SDS011;40108;53.152;5.844;2024-01-06T07:46:38;27.40;;;15.73;;
54201;SDS011;40108;53.152;5.844;2024-01-06T07:49:07;20.10;;;11.98;;
54201;SDS011;40108;53.152;5.844;2024-01-06T07:51:33;20.30;;;11.18;;
54201;SDS011;40108;53.152;5.844;2024-01-06T07:54:00;16.77;;;10.32;;
54201;SDS011;40108;53.152;5.844;2024-01-06T07:56:26;18.20;;;11.38;;
54201;SDS011;40108;53.152;5.844;2024-01-06T07:58:52;15.50;;;10.50;;
54201;SDS011;40108;53.152;5.844;2024-01-06T08:01:17;21.42;;;11.10;;
54201;SDS011;40108;53.152;5.844;2024-01-06T08:03:43;18.90;;;10.75;;
54201;SDS011;40108;53.152;5.844;2024-01-06T08:06:09;19.02;;;10.95;;
54201;SDS011;40108;53.152;5.844;2024-01-06T08:08:35;21.65;;;10.27;;
54201;SDS011;40108;53.152;5.844;2024-01-06T08:11:01;21.83;;;10.05;;
54201;SDS011;40108;53.152;5.844;2024-01-06T08:13:26;13.10;;;9.93;;
54201;SDS011;40108;53.152;5.844;2024-01-06T08:15:52;17.50;;;8.98;;
54201;SDS011;40108;53.152;5.844;2024-01-06T08:18:18;17.77;;;10.00;;
54201;SDS011;40108;53.152;5.844;2024-01-06T08:20:44;19.83;;;9.75;;
54201;SDS011;40108;53.152;5.844;2024-01-06T08:23:10;18.27;;;11.30;;
54201;SDS011;40108;53.152;5.844;2024-01-06T08:25:35;34.55;;;18.23;;
54201;SDS011;40108;53.152;5.844;2024-01-06T08:28:01;24.75;;;14.65;;
54201;SDS011;40108;53.152;5.844;2024-01-06T08:30:27;19.30;;;11.10;;
54201;SDS011;40108;53.152;5.844;2024-01-06T08:32:53;19.40;;;11.55;;
54201;SDS011;40108;53.152;5.844;2024-01-06T08:35:18;20.08;;;10.57;;
54201;SDS011;40108;53.152;5.844;2024-01-06T08:37:44;26.55;;;16.45;;
54201;SDS011;40108;53.152;5.844;2024-01-06T08:40:10;21.98;;;14.68;;
54201;SDS011;40108;53.152;5.844;2024-01-06T08:42:37;14.65;;;10.35;;
54201;SDS011;40108;53.152;5.844;2024-01-06T08:45:03;17.08;;;10.85;;
54201;SDS011;40108;53.152;5.844;2024-01-06T08:47:30;17.13;;;11.10;;
54201;SDS011;40108;53.152;5.844;2024-01-06T08:49:56;17.77;;;9.48;;
54201;SDS011;40108;53.152;5.844;2024-01-06T08:52:21;17.67;;;9.57;;
54201;SDS011;40108;53.152;5.844;2024-01-06T08:54:47;19.17;;;9.55;;
54201;SDS011;40108;53.152;5.844;2024-01-06T08:57:14;16.25;;;10.65;;
54201;SDS011;40108;53.152;5.844;2024-01-06T08:59:40;16.80;;;11.02;;
54201;SDS011;40108;53.152;5.844;2024-01-06T09:02:06;23.08;;;11.48;;
54201;SDS011;40108;53.152;5.844;2024-01-06T09:04:31;15.98;;;11.18;;
54201;SDS011;40108;53.152;5.844;2024-01-06T09:06:57;19.67;;;10.75;;
54201;SDS011;40108;53.152;5.844;2024-01-06T09:09:23;19.38;;;11.23;;
54201;SDS011;40108;53.152;5.844;2024-01-06T09:11:49;19.58;;;11.82;;
54201;SDS011;40108;53.152;5.844;2024-01-06T09:14:16;22.35;;;11.80;;
54201;SDS011;40108;53.152;5.844;2024-01-06T09:16:43;18.15;;;11.90;;
54201;SDS011;40108;53.152;5.844;2024-01-06T09:19:08;28.08;;;15.13;;
54201;SDS011;40108;53.152;5.844;2024-01-06T09:21:34;31.45;;;15.48;;
54201;SDS011;40108;53.152;5.844;2024-01-06T09:24:01;22.75;;;13.48;;
54201;SDS011;40108;53.152;5.844;2024-01-06T09:26:31;22.33;;;14.32;;
54201;SDS011;40108;53.152;5.844;2024-01-06T09:29:00;25.55;;;15.50;;
54201;SDS011;40108;53.152;5.844;2024-01-06T09:31:26;24.50;;;15.32;;
54201;SDS011;40108;53.152;5.844;2024-01-06T09:33:52;23.23;;;12.80;;
54201;SDS011;40108;53.152;5.844;2024-01-06T09:36:18;22.63;;;14.10;;
54201;SDS011;40108;53.152;5.844;2024-01-06T09:38:44;20.05;;;11.85;;
54201;SDS011;40108;53.152;5.844;2024-01-06T09:41:09;23.73;;;13.25;;
54201;SDS011;40108;53.152;5.844;2024-01-06T09:43:35;33.22;;;18.05;;
54201;SDS011;40108;53.152;5.844;2024-01-06T09:46:06;80.95;;;28.80;;
54201;SDS011;40108;53.152;5.844;2024-01-06T09:48:46;64.72;;;26.00;;
54201;SDS011;40108;53.152;5.844;2024-01-06T09:51:16;39.90;;;16.52;;
54201;SDS011;40108;53.152;5.844;2024-01-06T09:53:48;20.70;;;12.32;;
54201;SDS011;40108;53.152;5.844;2024-01-06T09:56:15;25.10;;;12.90;;
54201;SDS011;40108;53.152;5.844;2024-01-06T09:58:41;21.98;;;12.95;;
54201;SDS011;40108;53.152;5.844;2024-01-06T10:01:07;19.92;;;11.98;;
54201;SDS011;40108;53.152;5.844;2024-01-06T10:03:37;28.30;;;12.30;;
54201;SDS011;40108;53.152;5.844;2024-01-06T10:06:03;19.05;;;11.65;;
54201;SDS011;40108;53.152;5.844;2024-01-06T10:08:30;22.60;;;11.70;;
54201;SDS011;40108;53.152;5.844;2024-01-06T10:10:58;20.55;;;11.18;;
54201;SDS011;40108;53.152;5.844;2024-01-06T10:13:25;22.10;;;12.45;;
54201;SDS011;40108;53.152;5.844;2024-01-06T10:15:51;18.58;;;9.60;;
54201;SDS011;40108;53.152;5.844;2024-01-06T10:18:16;17.10;;;10.68;;
54201;SDS011;40108;53.152;5.844;2024-01-06T10:20:44;24.13;;;12.15;;
54201;SDS011;40108;53.152;5.844;2024-01-06T10:23:10;21.95;;;11.73;;
54201;SDS011;40108;53.152;5.844;2024-01-06T10:25:36;20.60;;;12.13;;
54201;SDS011;40108;53.152;5.844;2024-01-06T10:28:02;20.88;;;13.60;;
54201;SDS011;40108;53.152;5.844;2024-01-06T10:30:28;22.70;;;11.75;;
54201;SDS011;40108;53.152;5.844;2024-01-06T10:32:54;29.90;;;16.17;;
54201;SDS011;40108;53.152;5.844;2024-01-06T10:35:19;17.17;;;10.57;;
54201;SDS011;40108;53.152;5.844;2024-01-06T10:37:45;21.70;;;12.55;;
54201;SDS011;40108;53.152;5.844;2024-01-06T10:40:13;25.98;;;12.60;;
54201;SDS011;40108;53.152;5.844;2024-01-06T10:42:42;21.67;;;10.73;;
54201;SDS011;40108;53.152;5.844;2024-01-06T10:45:09;21.63;;;11.02;;
54201;SDS011;40108;53.152;5.844;2024-01-06T10:47:37;26.92;;;13.77;;
54201;SDS011;40108;53.152;5.844;2024-01-06T10:50:03;22.08;;;12.07;;
54201;SDS011;40108;53.152;5.844;2024-01-06T10:52:29;17.05;;;10.88;;
54201;SDS011;40108;53.152;5.844;2024-01-06T10:54:56;19.83;;;10.77;;
54201;SDS011;40108;53.152;5.844;2024-01-06T10:57:23;23.85;;;12.63;;
54201;SDS011;40108;53.152;5.844;2024-01-06T10:59:50;27.55;;;13.60;;
54201;SDS011;40108;53.152;5.844;2024-01-06T11:02:17;16.00;;;9.73;;
54201;SDS011;40108;53.152;5.844;2024-01-06T11:04:44;24.90;;;12.68;;
54201;SDS011;40108;53.152;5.844;2024-01-06T11:07:11;21.98;;;11.63;;
54201;SDS011;40108;53.152;5.844;2024-01-06T11:09:39;22.85;;;12.27;;
54201;SDS011;40108;53.152;5.844;2024-01-06T11:12:12;33.35;;;16.65;;
54201;SDS011;40108;53.152;5.844;2024-01-06T11:14:38;24.40;;;12.52;;
54201;SDS011;40108;53.152;5.844;2024-01-06T11:17:04;18.30;;;10.80;;
54201;SDS011;40108;53.152;5.844;2024-01-06T11:22:24;23.80;;;13.10;;
54201;SDS011;40108;53.152;5.844;2024-01-06T11:24:56;17.52;;;10.18;;
54201;SDS011;40108;53.152;5.844;2024-01-06T11:27:33;16.77;;;10.10;;
54201;SDS011;40108;53.152;5.844;2024-01-06T11:29:59;18.10;;;10.35;;
54201;SDS011;40108;53.152;5.844;2024-01-06T11:32:34;18.10;;;9.77;;
54201;SDS011;40108;53.152;5.844;2024-01-06T11:35:10;17.17;;;9.52;;
54201;SDS011;40108;53.152;5.844;2024-01-06T11:42:57;14.75;;;8.25;;
54201;SDS011;40108;53.152;5.844;2024-01-06T11:45:27;17.10;;;9.35;;
54201;SDS011;40108;53.152;5.844;2024-01-06T11:47:57;14.35;;;9.45;;
54201;SDS011;40108;53.152;5.844;2024-01-06T11:50:25;20.63;;;8.37;;
54201;SDS011;40108;53.152;5.844;2024-01-06T11:52:52;14.43;;;8.75;;
54201;SDS011;40108;53.152;5.844;2024-01-06T11:55:18;13.98;;;8.32;;
54201;SDS011;40108;53.152;5.844;2024-01-06T11:57:45;11.65;;;8.65;;
54201;SDS011;40108;53.152;5.844;2024-01-06T12:00:11;13.52;;;8.73;;
54201;SDS011;40108;53.152;5.844;2024-01-06T12:02:39;18.75;;;8.00;;
54201;SDS011;40108;53.152;5.844;2024-01-06T12:05:05;10.77;;;7.55;;
54201;SDS011;40108;53.152;5.844;2024-01-06T12:07:37;13.43;;;8.13;;
54201;SDS011;40108;53.152;5.844;2024-01-06T12:10:03;10.45;;;7.53;;
54201;SDS011;40108;53.152;5.844;2024-01-06T12:12:29;11.18;;;7.90;;
54201;SDS011;40108;53.152;5.844;2024-01-06T12:14:54;11.02;;;8.30;;
54201;SDS011;40108;53.152;5.844;2024-01-06T12:17:20;11.13;;;7.63;;
54201;SDS011;40108;53.152;5.844;2024-01-06T12:19:46;9.38;;;7.38;;
54201;SDS011;40108;53.152;5.844;2024-01-06T12:22:13;12.30;;;6.97;;
54201;SDS011;40108;53.152;5.844;2024-01-06T12:24:40;11.70;;;7.50;;
54201;SDS011;40108;53.152;5.844;2024-01-06T12:27:08;9.45;;;7.03;;
54201;SDS011;40108;53.152;5.844;2024-01-06T12:29:37;9.48;;;7.75;;
54201;SDS011;40108;53.152;5.844;2024-01-06T12:32:06;12.60;;;7.50;;
54201;SDS011;40108;53.152;5.844;2024-01-06T12:34:33;11.43;;;7.20;;
54201;SDS011;40108;53.152;5.844;2024-01-06T12:37:00;10.90;;;7.57;;
54201;SDS011;40108;53.152;5.844;2024-01-06T12:39:27;11.05;;;7.68;;
54201;SDS011;40108;53.152;5.844;2024-01-06T12:41:56;10.93;;;7.55;;
54201;SDS011;40108;53.152;5.844;2024-01-06T12:44:22;10.77;;;7.30;;
54201;SDS011;40108;53.152;5.844;2024-01-06T12:46:50;11.20;;;7.78;;
54201;SDS011;40108;53.152;5.844;2024-01-06T12:49:16;10.02;;;6.03;;
54201;SDS011;40108;53.152;5.844;2024-01-06T12:51:42;10.95;;;6.88;;
54201;SDS011;40108;53.152;5.844;2024-01-06T12:54:07;10.25;;;6.05;;
54201;SDS011;40108;53.152;5.844;2024-01-06T12:56:33;9.07;;;6.88;;
54201;SDS011;40108;53.152;5.844;2024-01-06T12:58:59;10.98;;;7.38;;
54201;SDS011;40108;53.152;5.844;2024-01-06T13:01:25;8.02;;;7.00;;
54201;SDS011;40108;53.152;5.844;2024-01-06T13:03:50;10.07;;;7.28;;
54201;SDS011;40108;53.152;5.844;2024-01-06T13:06:18;11.23;;;7.45;;
54201;SDS011;40108;53.152;5.844;2024-01-06T13:08:44;13.65;;;7.00;;
54201;SDS011;40108;53.152;5.844;2024-01-06T13:11:10;10.85;;;7.30;;
54201;SDS011;40108;53.152;5.844;2024-01-06T13:13:36;11.82;;;7.07;;
54201;SDS011;40108;53.152;5.844;2024-01-06T13:16:02;10.18;;;6.57;;
54201;SDS011;40108;53.152;5.844;2024-01-06T13:18:30;10.07;;;6.65;;
54201;SDS011;40108;53.152;5.844;2024-01-06T13:20:56;10.68;;;7.28;;
54201;SDS011;40108;53.152;5.844;2024-01-06T13:23:22;9.27;;;6.97;;
54201;SDS011;40108;53.152;5.844;2024-01-06T13:25:47;8.65;;;7.00;;
54201;SDS011;40108;53.152;5.844;2024-01-06T13:28:13;11.93;;;7.05;;
54201;SDS011;40108;53.152;5.844;2024-01-06T13:30:39;7.95;;;6.57;;
54201;SDS011;40108;53.152;5.844;2024-01-06T13:33:06;9.93;;;6.88;;
54201;SDS011;40108;53.152;5.844;2024-01-06T13:35:32;11.18;;;7.15;;
54201;SDS011;40108;53.152;5.844;2024-01-06T13:37:58;10.55;;;6.30;;
54201;SDS011;40108;53.152;5.844;2024-01-06T13:40:24;9.07;;;6.75;;
54201;SDS011;40108;53.152;5.844;2024-01-06T13:42:50;14.52;;;11.80;;
54201;SDS011;40108;53.152;5.844;2024-01-06T13:45:17;8.93;;;6.00;;
54201;SDS011;40108;53.152;5.844;2024-01-06T13:47:43;9.23;;;5.95;;
54201;SDS011;40108;53.152;5.844;2024-01-06T13:50:13;7.15;;;5.68;;
54201;SDS011;40108;53.152;5.844;2024-01-06T13:52:40;8.00;;;5.65;;
54201;SDS011;40108;53.152;5.844;2024-01-06T13:55:06;7.93;;;5.57;;
54201;SDS011;40108;53.152;5.844;2024-01-06T13:57:33;7.47;;;6.07;;
54201;SDS011;40108;53.152;5.844;2024-01-06T13:59:59;12.10;;;6.68;;
54201;SDS011;40108;53.152;5.844;2024-01-06T14:02:25;9.80;;;6.40;;
54201;SDS011;40108;53.152;5.844;2024-01-06T14:04:51;9.80;;;6.63;;
54201;SDS011;40108;53.152;5.844;2024-01-06T14:07:17;8.23;;;6.47;;
54201;SDS011;40108;53.152;5.844;2024-01-06T14:09:47;9.65;;;6.07;;
54201;SDS011;40108;53.152;5.844;2024-01-06T14:12:13;9.85;;;7.05;;
54201;SDS011;40108;53.152;5.844;2024-01-06T14:14:39;7.97;;;6.22;;
54201;SDS011;40108;53.152;5.844;2024-01-06T14:17:06;9.07;;;6.53;;
54201;SDS011;40108;53.152;5.844;2024-01-06T14:19:32;8.48;;;6.30;;
54201;SDS011;40108;53.152;5.844;2024-01-06T14:21:58;9.63;;;6.28;;
54201;SDS011;40108;53.152;5.844;2024-01-06T14:24:23;8.48;;;6.20;;
54201;SDS011;40108;53.152;5.844;2024-01-06T14:26:50;7.85;;;5.75;;
54201;SDS011;40108;53.152;5.844;2024-01-06T14:29:18;8.23;;;5.85;;